Time;durP1;ratioP1;P1;durP2;ratioP2;P2;SDS_P1;SDS_P2;PMS_P1;PMS_P2;Temp;Humidity;BMP_temperature;BMP_pressure;BME280_temperature;BME280_humidity;BME280_pressure;Samples;Min_cycle;Max_cycle;Signal;HPM_P1;HPM_P2
2023/10/31 00:01:55;;;;;;;;;;;;;;;8.34;100.00;98888.94;5081398;28;20403;-77
2023/10/31 00:04:39;;;;;;;;;;;;;;;8.36;100.00;98879.19;5091097;28;19988;-77
2023/10/31 00:07:23;;;;;;;;;;;;;;;8.39;100.00;98877.78;5065543;28;20268;-78
2023/10/31 00:10:07;;;;;;;;;;;;;;;8.41;100.00;98878.25;5080599;28;19919;-78
2023/10/31 00:12:51;;;;;;;;;;;;;;;8.42;100.00;98883.47;5077050;28;20391;-77
2023/10/31 00:15:35;;;;;;;;;;;;;;;8.41;100.00;98881.03;5108124;27;19918;-78
2023/10/31 00:18:19;;;;;;;;;;;;;;;8.39;100.00;98880.56;5083580;28;19996;-77
2023/10/31 00:21:05;;;;;;;;;;;;;;;8.41;100.00;98889.31;5096711;28;19919;-77
2023/10/31 00:23:49;;;;;;;;;;;;;;;8.39;100.00;98895.19;5076650;28;20351;-78
2023/10/31 00:26:33;;;;;;;;;;;;;;;8.33;100.00;98890.91;5095871;28;19918;-78
2023/10/31 00:29:17;;;;;;;;;;;;;;;8.36;100.00;98893.03;5092638;28;19919;-78
2023/10/31 00:32:01;;;;;;;;;;;;;;;8.33;100.00;98890.06;5076655;28;19920;-77
2023/10/31 00:34:45;;;;;;;;;;;;;;;8.32;100.00;98885.69;5093350;28;19933;-77
2023/10/31 00:37:29;;;;;;;;;;;;;;;8.29;100.00;98890.72;5091971;28;19931;-77
2023/10/31 00:40:13;;;;;;;;;;;;;;;8.24;100.00;98893.59;5115885;28;19922;-77
2023/10/31 00:42:58;;;;;;;;;;;;;;;8.23;100.00;98897.50;5090423;28;19923;-77
2023/10/31 00:45:42;;;;;;;;;;;;;;;8.22;100.00;98906.16;5090369;28;19961;-77
2023/10/31 00:48:26;;;;;;;;;;;;;;;8.23;100.00;98907.78;5082778;28;20371;-77
2023/10/31 00:51:11;;;;;;;;;;;;;;;8.19;100.00;98907.59;5078301;28;19919;-77
2023/10/31 00:53:55;;;;;;;;;;;;;;;8.17;100.00;98917.34;5093534;28;19950;-77
2023/10/31 00:56:39;;;;;;;;;;;;;;;8.13;100.00;98908.84;5097751;28;19966;-77
2023/10/31 00:59:23;;;;;;;;;;;;;;;8.14;100.00;98916.03;5070929;28;19982;-77
2023/10/31 01:02:07;;;;;;;;;;;;;;;8.12;100.00;98915.50;5096606;28;19919;-77
2023/10/31 01:04:51;;;;;;;;;;;;;;;8.12;100.00;98917.47;5096515;28;19923;-77
2023/10/31 01:07:35;;;;;;;;;;;;;;;8.09;100.00;98918.09;5092343;28;19919;-77
2023/10/31 01:10:19;;;;;;;;;;;;;;;8.09;100.00;98910.63;5082487;28;19958;-77
2023/10/31 01:13:04;;;;;;;;;;;;;;;8.08;100.00;98911.75;5092587;28;19919;-77
2023/10/31 01:15:47;;;;;;;;;;;;;;;8.08;100.00;98920.06;5080461;28;19970;-77
2023/10/31 01:18:31;;;;;;;;;;;;;;;8.11;100.00;98919.41;5094720;28;19919;-77
2023/10/31 01:21:15;;;;;;;;;;;;;;;8.06;100.00;98925.09;5124366;27;20275;-77
2023/10/31 01:23:59;;;;;;;;;;;;;;;8.10;100.00;98936.31;5101127;28;19938;-77
2023/10/31 01:26:43;;;;;;;;;;;;;;;8.08;100.00;98925.59;5067634;28;20368;-77
2023/10/31 01:29:27;;;;;;;;;;;;;;;8.06;100.00;98941.66;5083348;28;20313;-78
2023/10/31 01:32:12;;;;;;;;;;;;;;;8.10;100.00;98945.41;5094223;28;19996;-77
2023/10/31 01:34:55;;;;;;;;;;;;;;;8.13;100.00;98953.09;5103942;28;20379;-77
2023/10/31 01:37:40;;;;;;;;;;;;;;;8.15;100.00;98955.53;5112425;28;19977;-77
2023/10/31 01:40:24;;;;;;;;;;;;;;;8.17;100.00;98958.81;5094231;28;19919;-77
2023/10/31 01:43:08;;;;;;;;;;;;;;;8.17;100.00;98959.63;5087318;28;19938;-77
2023/10/31 01:45:52;;;;;;;;;;;;;;;8.17;100.00;98959.63;5082028;28;19965;-77
2023/10/31 01:48:36;;;;;;;;;;;;;;;8.22;100.00;98956.75;5085657;28;20015;-77
2023/10/31 01:51:20;;;;;;;;;;;;;;;8.26;100.00;98956.91;5089876;28;19919;-77
2023/10/31 01:54:04;;;;;;;;;;;;;;;8.29;100.00;98964.56;5083650;28;19978;-77
2023/10/31 01:56:50;;;;;;;;;;;;;;;8.31;100.00;98967.03;5083851;28;20306;-77
2023/10/31 01:59:34;;;;;;;;;;;;;;;8.33;100.00;98970.28;5099623;28;19919;-78
2023/10/31 02:02:19;;;;;;;;;;;;;;;8.34;100.00;98977.47;5100259;28;19984;-78
2023/10/31 02:05:03;;;;;;;;;;;;;;;8.36;100.00;98980.72;5099452;28;20494;-77
2023/10/31 02:07:47;;;;;;;;;;;;;;;8.37;100.00;98982.38;5085035;28;20009;-77
2023/10/31 02:10:31;;;;;;;;;;;;;;;8.37;100.00;98980.41;5087296;28;20333;-77
2023/10/31 02:13:15;;;;;;;;;;;;;;;8.36;100.00;98989.84;5082080;28;19990;-77
2023/10/31 02:15:59;;;;;;;;;;;;;;;8.38;100.00;98997.81;5079230;28;19969;-77
2023/10/31 02:18:43;;;;;;;;;;;;;;;8.34;100.00;98996.81;5093349;28;19919;-77
2023/10/31 02:21:27;;;;;;;;;;;;;;;8.33;100.00;98998.78;5112157;28;20375;-77
2023/10/31 02:24:11;;;;;;;;;;;;;;;8.34;100.00;99002.38;5092601;28;19924;-77
2023/10/31 02:26:57;;;;;;;;;;;;;;;8.33;100.00;99006.25;5082305;28;20329;-78
2023/10/31 02:29:41;;;;;;;;;;;;;;;8.31;100.00;99005.75;5113602;27;19919;-78
2023/10/31 02:32:25;;;;;;;;;;;;;;;8.29;100.00;99006.88;5099047;28;19997;-77
2023/10/31 02:35:09;;;;;;;;;;;;;;;8.31;100.00;99011.28;5089354;28;19939;-77
2023/10/31 02:37:53;;;;;;;;;;;;;;;8.27;100.00;99003.63;5094909;28;19928;-77
2023/10/31 02:40:37;;;;;;;;;;;;;;;8.29;100.00;99009.63;5092226;28;19934;-77
2023/10/31 02:43:21;;;;;;;;;;;;;;;8.31;100.00;99019.59;5092515;28;19966;-77
2023/10/31 02:46:05;;;;;;;;;;;;;;;8.28;100.00;99024.63;5096228;28;19919;-78
2023/10/31 02:48:49;;;;;;;;;;;;;;;8.26;100.00;99024.09;5098590;28;19953;-77
2023/10/31 02:51:33;;;;;;;;;;;;;;;8.28;100.00;99029.34;5098938;28;20336;-78
2023/10/31 02:54:17;;;;;;;;;;;;;;;8.28;100.00;99026.56;5083928;28;19988;-77
2023/10/31 02:57:02;;;;;;;;;;;;;;;8.27;100.00;99031.28;5094192;28;19962;-77
2023/10/31 02:59:46;;;;;;;;;;;;;;;8.27;100.00;99031.28;5098585;28;19919;-77
2023/10/31 03:02:30;;;;;;;;;;;;;;;8.30;100.00;99032.59;5070944;28;19919;-77
2023/10/31 03:05:14;;;;;;;;;;;;;;;8.26;100.00;99035.16;5098472;28;19992;-77
2023/10/31 03:07:58;;;;;;;;;;;;;;;8.25;100.00;99039.06;5083180;28;19920;-77
2023/10/31 03:10:42;;;;;;;;;;;;;;;8.25;100.00;99047.38;5086242;28;19919;-77
2023/10/31 03:13:26;;;;;;;;;;;;;;;8.22;100.00;99044.44;5081999;28;19958;-77
2023/10/31 03:16:10;;;;;;;;;;;;;;;8.23;100.00;99052.41;5078092;28;19961;-77
2023/10/31 03:18:55;;;;;;;;;;;;;;;8.21;100.00;99053.84;5077338;28;19935;-77
2023/10/31 03:21:39;;;;;;;;;;;;;;;8.22;100.00;99049.97;5097001;28;19923;-77
2023/10/31 03:24:23;;;;;;;;;;;;;;;8.24;100.00;99053.22;5093126;28;19995;-77
2023/10/31 03:27:07;;;;;;;;;;;;;;;8.22;100.00;99069.31;5077780;28;19920;-77
2023/10/31 03:29:51;;;;;;;;;;;;;;;8.22;100.00;99072.91;5113141;27;19923;-77
2023/10/31 03:32:35;;;;;;;;;;;;;;;8.18;100.00;99073.81;5098156;28;19941;-77
2023/10/31 03:35:19;;;;;;;;;;;;;;;8.16;100.00;99078.84;5089067;28;19923;-77
2023/10/31 03:38:03;;;;;;;;;;;;;;;8.10;100.00;99077.34;5063447;28;20494;-77
2023/10/31 03:40:47;;;;;;;;;;;;;;;8.08;100.00;99083.19;5093555;28;19970;-77
2023/10/31 03:43:31;;;;;;;;;;;;;;;8.03;100.00;99086.88;5077463;28;19924;-77
2023/10/31 03:46:16;;;;;;;;;;;;;;;8.00;100.00;99086.69;5086037;28;19935;-77
2023/10/31 03:49:00;;;;;;;;;;;;;;;7.96;100.00;99088.44;5094112;28;20017;-77
2023/10/31 03:51:44;;;;;;;;;;;;;;;7.93;100.00;99091.81;5097517;28;19919;-77
2023/10/31 03:54:28;;;;;;;;;;;;;;;7.88;100.00;99095.50;5083398;28;19933;-77
2023/10/31 03:57:12;;;;;;;;;;;;;;;7.83;100.00;99099.22;5095075;28;19999;-77
2023/10/31 03:59:56;;;;;;;;;;;;;;;7.81;100.00;99101.47;5091317;28;19975;-77
2023/10/31 04:02:41;;;;;;;;;;;;;;;7.80;100.00;99099.84;5091669;28;19958;-78
2023/10/31 04:05:25;;;;;;;;;;;;;;;7.76;100.00;99101.59;5108882;28;19934;-77
2023/10/31 04:08:09;;;;;;;;;;;;;;;7.71;100.00;99123.78;5078710;28;20022;-77
2023/10/31 04:10:53;;;;;;;;;;;;;;;7.61;100.00;99118.50;5076732;28;19919;-77
2023/10/31 04:13:37;;;;;;;;;;;;;;;7.61;100.00;99127.59;5104659;28;19973;-77
2023/10/31 04:16:21;;;;;;;;;;;;;;;7.55;100.00;99130.75;5093020;28;19919;-77
2023/10/31 04:19:05;;;;;;;;;;;;;;;7.53;100.00;99133.84;5082458;28;20042;-77
2023/10/31 04:21:49;;;;;;;;;;;;;;;7.54;100.00;99129.13;5063753;28;20021;-77
2023/10/31 04:24:33;;;;;;;;;;;;;;;7.46;100.00;99150.00;5078365;28;19923;-77
2023/10/31 04:27:17;;;;;;;;;;;;;;;7.43;100.00;99145.09;5076725;28;19919;-77
2023/10/31 04:30:01;;;;;;;;;;;;;;;7.39;100.00;99155.94;5070647;28;20268;-77
2023/10/31 04:32:45;;;;;;;;;;;;;;;7.35;100.00;99160.47;5098475;28;19934;-77
2023/10/31 04:35:29;;;;;;;;;;;;;;;7.31;100.00;99158.59;5091216;28;19922;-77
2023/10/31 04:38:13;;;;;;;;;;;;;;;7.29;100.00;99181.00;5079296;28;19947;-77
2023/10/31 04:40:57;;;;;;;;;;;;;;;7.25;100.00;99176.41;5135943;27;20267;-77
2023/10/31 04:43:41;;;;;;;;;;;;;;;7.21;100.00;99178.13;5096529;28;19967;-77
2023/10/31 04:46:27;;;;;;;;;;;;;;;7.20;100.00;99184.78;5065823;28;20328;-77
2023/10/31 04:49:10;;;;;;;;;;;;;;;7.15;100.00;99186.47;5098597;28;19976;-77
2023/10/31 04:51:55;;;;;;;;;;;;;;;7.15;100.00;99180.97;5086683;28;20260;-78
2023/10/31 04:54:39;;;;;;;;;;;;;;;7.10;100.00;99197.66;5097946;28;20280;-77
2023/10/31 04:57:23;;;;;;;;;;;;;;;7.11;100.00;99196.50;5100865;28;20272;-77
2023/10/31 05:00:08;;;;;;;;;;;;;;;7.10;100.00;99208.69;5100443;28;20041;-77
2023/10/31 05:02:52;;;;;;;;;;;;;;;7.05;100.00;99208.78;5080329;28;20318;-77
2023/10/31 05:05:36;;;;;;;;;;;;;;;7.03;100.00;99213.75;5087532;28;19920;-77
2023/10/31 05:08:20;;;;;;;;;;;;;;;6.98;100.00;99207.50;5085998;28;20372;-77
2023/10/31 05:11:04;;;;;;;;;;;;;;;6.97;100.00;99216.94;5086087;28;20007;-77
2023/10/31 05:13:48;;;;;;;;;;;;;;;6.94;100.00;99210.88;5088054;28;19923;-77
2023/10/31 05:16:38;;;;;;;;;;;;;;;6.94;100.00;99216.41;5098391;28;19919;-77
2023/10/31 05:19:22;;;;;;;;;;;;;;;6.92;100.00;99215.88;5085840;28;19919;-77
2023/10/31 05:22:06;;;;;;;;;;;;;;;6.88;100.00;99214.84;5100628;28;20269;-77
2023/10/31 05:24:51;;;;;;;;;;;;;;;6.85;100.00;99212.69;5087623;28;19962;-77
2023/10/31 05:27:35;;;;;;;;;;;;;;;6.85;100.00;99217.38;5082121;28;19919;-76
2023/10/31 05:30:19;;;;;;;;;;;;;;;6.82;100.00;99217.97;5100211;28;19923;-77
2023/10/31 05:33:03;;;;;;;;;;;;;;;6.79;100.00;99218.59;5073019;28;19919;-77
2023/10/31 05:35:47;;;;;;;;;;;;;;;6.75;100.00;99231.34;5085267;28;20339;-77
2023/10/31 05:38:31;;;;;;;;;;;;;;;6.73;100.00;99226.13;5089681;28;19927;-77
2023/10/31 05:41:15;;;;;;;;;;;;;;;6.72;100.00;99238.28;5098447;28;20358;-77
2023/10/31 05:43:59;;;;;;;;;;;;;;;6.67;100.00;99243.88;5100254;28;19927;-77
2023/10/31 05:46:43;;;;;;;;;;;;;;;6.66;100.00;99248.59;5079816;28;19919;-77
2023/10/31 05:49:27;;;;;;;;;;;;;;;6.64;100.00;99250.81;5079051;28;20087;-77
2023/10/31 05:52:11;;;;;;;;;;;;;;;6.63;100.00;99259.38;5095468;28;19919;-77
2023/10/31 05:54:55;;;;;;;;;;;;;;;6.66;100.00;99256.03;5094018;28;19920;-77
2023/10/31 05:57:40;;;;;;;;;;;;;;;6.62;100.00;99253.03;5087323;28;20378;-77
2023/10/31 06:00:24;;;;;;;;;;;;;;;6.63;100.00;99264.88;5093125;28;20433;-77
2023/10/31 06:03:09;;;;;;;;;;;;;;;6.57;100.00;99263.31;5093899;28;19923;-77
2023/10/31 06:05:53;;;;;;;;;;;;;;;6.52;100.00;99266.16;5088088;28;20045;-77
2023/10/31 06:08:37;;;;;;;;;;;;;;;6.54;100.00;99269.44;5084825;28;20019;-77
2023/10/31 06:11:21;;;;;;;;;;;;;;;6.52;100.00;99267.00;5079947;28;20344;-77
2023/10/31 06:14:05;;;;;;;;;;;;;;;6.48;100.00;99277.78;5110192;28;19923;-77
2023/10/31 06:16:49;;;;;;;;;;;;;;;6.45;100.00;99283.91;5079637;28;20276;-77
2023/10/31 06:19:34;;;;;;;;;;;;;;;6.43;100.00;99291.63;5100281;28;19960;-77
2023/10/31 06:22:18;;;;;;;;;;;;;;;6.43;100.00;99288.06;5093247;28;20019;-77
2023/10/31 06:25:02;;;;;;;;;;;;;;;6.46;100.00;99291.06;5086437;28;19923;-77
2023/10/31 06:27:46;;;;;;;;;;;;;;;6.40;100.00;99291.41;5082424;28;19959;-77
2023/10/31 06:30:31;;;;;;;;;;;;;;;6.37;100.00;99289.25;5084756;28;19957;-77
2023/10/31 06:33:15;;;;;;;;;;;;;;;6.39;100.00;99298.88;5086147;28;20264;-77
2023/10/31 06:35:59;;;;;;;;;;;;;;;6.36;100.00;99301.41;5099045;28;19969;-77
2023/10/31 06:38:43;;;;;;;;;;;;;;;6.32;100.00;99305.88;5072100;28;19927;-77
2023/10/31 06:41:27;;;;;;;;;;;;;;;6.33;100.00;99305.59;5079964;28;19966;-77
2023/10/31 06:44:11;;;;;;;;;;;;;;;6.32;100.00;99317.72;5080850;28;20298;-77
2023/10/31 06:46:55;;;;;;;;;;;;;;;6.32;100.00;99322.41;5080955;28;19934;-77
2023/10/31 06:49:39;;;;;;;;;;;;;;;6.30;100.00;99321.91;5096379;28;20090;-77
2023/10/31 06:52:23;;;;;;;;;;;;;;;6.25;100.00;99320.03;5081676;28;20013;-77
2023/10/31 06:55:07;;;;;;;;;;;;;;;6.31;100.00;99326.28;5092713;28;20004;-77
2023/10/31 06:57:51;;;;;;;;;;;;;;;6.26;100.00;99336.25;5096368;28;19919;-77
2023/10/31 07:00:35;;;;;;;;;;;;;;;6.30;100.00;99333.75;5099505;28;20003;-77
2023/10/31 07:03:19;;;;;;;;;;;;;;;6.31;100.00;99342.84;5098167;28;19977;-77
2023/10/31 07:06:03;;;;;;;;;;;;;;;6.28;100.00;99341.50;5098426;28;19935;-77
2023/10/31 07:08:47;;;;;;;;;;;;;;;6.34;100.00;99342.25;5089074;28;20322;-77
2023/10/31 07:11:33;;;;;;;;;;;;;;;6.31;100.00;99351.94;5084686;28;20419;-77
2023/10/31 07:14:17;;;;;;;;;;;;;;;6.32;100.00;99352.75;5092326;28;19923;-77
2023/10/31 07:17:01;;;;;;;;;;;;;;;6.35;100.00;99358.50;5085006;28;19919;-77
2023/10/31 07:19:45;;;;;;;;;;;;;;;6.40;100.00;99363.13;5098213;28;19919;-77
2023/10/31 07:22:29;;;;;;;;;;;;;;;6.42;100.00;99364.47;5083435;28;19985;-77
2023/10/31 07:25:13;;;;;;;;;;;;;;;6.46;100.00;99371.06;5085952;28;20314;-77
2023/10/31 07:27:57;;;;;;;;;;;;;;;6.52;100.00;99370.97;5097316;28;19966;-77
2023/10/31 07:30:41;;;;;;;;;;;;;;;6.56;100.00;99377.56;5097879;28;20356;-77
2023/10/31 07:33:25;;;;;;;;;;;;;;;6.61;100.00;99392.09;5097892;28;19919;-77
2023/10/31 07:36:09;;;;;;;;;;;;;;;6.69;100.00;99390.63;5096902;28;20268;-77
2023/10/31 07:38:53;;;;;;;;;;;;;;;6.79;100.00;99401.53;5085288;28;19966;-77
2023/10/31 07:41:37;;;;;;;;;;;;;;;6.88;100.00;99405.28;5071906;28;20406;-77
2023/10/31 07:44:21;;;;;;;;;;;;;;;6.99;100.00;99408.72;5081568;28;19962;-77
2023/10/31 07:47:05;;;;;;;;;;;;;;;7.09;100.00;99419.63;5088113;28;19918;-77
2023/10/31 07:49:49;;;;;;;;;;;;;;;7.23;100.00;99416.13;5090707;28;19965;-77
2023/10/31 07:52:33;;;;;;;;;;;;;;;7.34;100.00;99423.94;5095695;28;19920;-77
2023/10/31 07:55:17;;;;;;;;;;;;;;;7.48;100.00;99423.19;5083039;28;19919;-77
2023/10/31 07:58:01;;;;;;;;;;;;;;;7.62;100.00;99429.59;5108062;28;20264;-77
2023/10/31 08:00:45;;;;;;;;;;;;;;;7.75;100.00;99434.38;5072459;28;19978;-77
2023/10/31 08:03:29;;;;;;;;;;;;;;;7.88;100.00;99443.00;5079002;28;19927;-77
2023/10/31 08:06:13;;;;;;;;;;;;;;;8.03;100.00;99451.06;5092709;28;19927;-77
2023/10/31 08:08:57;;;;;;;;;;;;;;;8.15;100.00;99459.66;5070436;28;20018;-77
2023/10/31 08:11:41;;;;;;;;;;;;;;;8.28;100.00;99458.06;5078734;28;19957;-77
2023/10/31 08:14:25;;;;;;;;;;;;;;;8.44;100.00;99455.84;5097257;28;19934;-77
2023/10/31 08:17:09;;;;;;;;;;;;;;;8.58;100.00;99453.94;5085753;28;19977;-77
2023/10/31 08:19:53;;;;;;;;;;;;;;;8.73;100.00;99464.69;5080869;28;19919;-77
2023/10/31 08:22:38;;;;;;;;;;;;;;;8.90;100.00;99460.50;5090557;28;20033;-77
2023/10/31 08:25:22;;;;;;;;;;;;;;;9.06;100.00;99472.91;5100664;28;19919;-77
2023/10/31 08:28:06;;;;;;;;;;;;;;;9.19;100.00;99474.00;5082262;28;20410;-77
2023/10/31 08:30:50;;;;;;;;;;;;;;;9.34;100.00;99472.88;5082576;28;19934;-77
2023/10/31 08:33:34;;;;;;;;;;;;;;;9.49;100.00;99475.28;5076872;28;19919;-77
2023/10/31 08:36:18;;;;;;;;;;;;;;;9.63;100.00;99478.81;5103414;28;19919;-77
2023/10/31 08:39:03;;;;;;;;;;;;;;;9.83;100.00;99496.13;5086712;28;20288;-77
2023/10/31 08:41:51;;;;;;;;;;;;;;;10.00;100.00;99496.28;5091149;28;19920;-77
2023/10/31 08:44:37;;;;;;;;;;;;;;;10.17;100.00;99489.19;5090618;28;19967;-77
2023/10/31 08:47:21;;;;;;;;;;;;;;;10.31;100.00;99489.13;5101371;28;20005;-77
2023/10/31 08:50:08;;;;;;;;;;;;;;;10.47;100.00;99501.47;5093840;28;19919;-77
2023/10/31 08:52:52;;;;;;;;;;;;;;;10.60;100.00;99497.00;5064757;28;19970;-77
2023/10/31 08:55:36;;;;;;;;;;;;;;;10.72;100.00;99506.34;5079828;28;19923;-77
2023/10/31 08:58:20;;;;;;;;;;;;;;;10.82;100.00;99501.69;5096878;28;19962;-77
2023/10/31 09:01:04;;;;;;;;;;;;;;;10.93;100.00;99501.06;5076325;28;19919;-77
2023/10/31 09:03:49;;;;;;;;;;;;;;;11.06;100.00;99498.47;5081558;28;19923;-77
2023/10/31 09:06:33;;;;;;;;;;;;;;;11.18;100.00;99501.47;5077704;28;20288;-77
2023/10/31 09:09:17;;;;;;;;;;;;;;;11.24;100.00;99494.63;5096293;28;19918;-77
2023/10/31 09:12:02;;;;;;;;;;;;;;;11.35;100.00;99507.06;5096466;28;20259;-77
2023/10/31 09:14:46;;;;;;;;;;;;;;;11.41;100.00;99514.09;5096529;28;19919;-77
2023/10/31 09:17:30;;;;;;;;;;;;;;;11.49;100.00;99520.84;5076487;28;19972;-77
2023/10/31 09:20:14;;;;;;;;;;;;;;;11.57;100.00;99524.78;5083905;28;19970;-77
2023/10/31 09:22:58;;;;;;;;;;;;;;;11.63;100.00;99529.84;5078648;28;19982;-77
2023/10/31 09:25:42;;;;;;;;;;;;;;;11.71;100.00;99531.00;5090735;28;19919;-78
2023/10/31 09:28:26;;;;;;;;;;;;;;;11.80;100.00;99525.47;5085889;28;20001;-77
2023/10/31 09:31:11;;;;;;;;;;;;;;;11.91;100.00;99535.16;5097194;28;19920;-78
2023/10/31 09:33:54;;;;;;;;;;;;;;;11.99;100.00;99520.41;5081936;28;20461;-77
2023/10/31 09:36:39;;;;;;;;;;;;;;;12.10;100.00;99514.53;5085694;28;20015;-78
2023/10/31 09:39:23;;;;;;;;;;;;;;;12.21;100.00;99524.19;5072133;28;19932;-78
2023/10/31 09:42:07;;;;;;;;;;;;;;;12.33;100.00;99529.88;5090814;28;20457;-78
2023/10/31 09:44:51;;;;;;;;;;;;;;;12.44;100.00;99522.81;5088273;28;19922;-78
2023/10/31 09:47:35;;;;;;;;;;;;;;;12.57;100.00;99523.78;5081802;28;19919;-78
2023/10/31 09:50:19;;;;;;;;;;;;;;;12.71;100.00;99524.41;5080310;28;19923;-78
2023/10/31 09:53:03;;;;;;;;;;;;;;;12.83;100.00;99526.50;5095134;28;20375;-78
2023/10/31 09:55:48;;;;;;;;;;;;;;;12.98;100.00;99527.91;5085192;28;19935;-79
2023/10/31 09:58:32;;;;;;;;;;;;;;;13.13;100.00;99534.91;5081263;28;20411;-78
2023/10/31 10:01:16;;;;;;;;;;;;;;;13.25;100.00;99542.56;5099782;28;19995;-78
2023/10/31 10:04:00;;;;;;;;;;;;;;;13.36;100.00;99557.78;5086165;28;19923;-78
2023/10/31 10:06:52;;;;;;;;;;;;;;;13.47;100.00;99549.84;5082412;28;19994;-78
2023/10/31 10:09:37;;;;;;;;;;;;;;;13.62;100.00;99555.69;5093582;28;19919;-78
2023/10/31 10:12:21;;;;;;;;;;;;;;;13.73;100.00;99556.09;5094893;28;19965;-78
2023/10/31 10:15:05;;;;;;;;;;;;;;;13.84;100.00;99554.53;5099959;28;19934;-79
2023/10/31 10:17:50;;;;;;;;;;;;;;;13.99;100.00;99563.47;5079413;28;19962;-78
2023/10/31 10:20:34;;;;;;;;;;;;;;;14.15;100.00;99555.28;5085226;28;19919;-78
2023/10/31 10:23:18;;;;;;;;;;;;;;;14.27;100.00;99544.19;5098990;28;19966;-78
2023/10/31 10:26:02;;;;;;;;;;;;;;;14.40;100.00;99551.47;5095427;28;19919;-78
2023/10/31 10:28:47;;;;;;;;;;;;;;;14.51;100.00;99557.41;5093366;28;19961;-78
2023/10/31 10:31:31;;;;;;;;;;;;;;;14.61;100.00;99548.66;5086610;28;20041;-78
2023/10/31 10:34:16;;;;;;;;;;;;;;;14.70;100.00;99551.34;5100117;28;19919;-78
2023/10/31 10:36:59;;;;;;;;;;;;;;;14.79;100.00;99554.03;5078236;28;19940;-78
2023/10/31 10:39:44;;;;;;;;;;;;;;;14.87;100.00;99550.34;5084084;28;19935;-79
2023/10/31 10:42:35;;;;;;;;;;;;;;;14.92;100.00;99550.94;5081121;28;20019;-78
2023/10/31 10:45:20;;;;;;;;;;;;;;;14.98;100.00;99538.34;5091266;28;19969;-78
2023/10/31 10:48:05;;;;;;;;;;;;;;;15.03;100.00;99548.50;5096829;28;19919;-79
2023/10/31 10:51:06;;;;;;;;;;;;;;;15.06;100.00;99547.00;5111132;28;19961;-79
2023/10/31 10:54:17;;;;;;;;;;;;;;;15.08;100.00;99544.69;5094658;28;19950;-79
2023/10/31 10:57:15;;;;;;;;;;;;;;;15.08;100.00;99542.69;5095284;28;19920;-79
2023/10/31 11:00:01;;;;;;;;;;;;;;;15.08;100.00;99545.50;5084522;28;20025;-78
2023/10/31 11:02:45;;;;;;;;;;;;;;;15.09;100.00;99543.50;5098668;28;19966;-79
2023/10/31 11:05:29;;;;;;;;;;;;;;;15.07;100.00;99552.25;5083872;28;19989;-79
2023/10/31 11:08:14;;;;;;;;;;;;;;;15.08;100.00;99562.28;5083439;28;19969;-79
2023/10/31 11:10:58;;;;;;;;;;;;;;;15.08;100.00;99559.47;5098150;28;19919;-79
2023/10/31 11:13:45;;;;;;;;;;;;;;;15.08;100.00;99544.69;5071145;28;20000;-79
2023/10/31 11:16:30;;;;;;;;;;;;;;;15.11;100.00;99550.38;5081692;28;19934;-79
2023/10/31 11:19:14;;;;;;;;;;;;;;;15.13;100.00;99564.84;5092468;28;20015;-79
2023/10/31 11:22:01;;;;;;;;;;;;;;;15.15;100.00;99565.28;5080827;28;19919;-79
2023/10/31 11:24:45;;;;;;;;;;;;;;;15.20;100.00;99553.06;5110811;28;20154;-79
2023/10/31 11:27:29;;;;;;;;;;;;;;;15.25;100.00;99552.84;5079208;28;19939;-79
2023/10/31 11:30:20;;;;;;;;;;;;;;;15.29;100.00;99550.97;5077551;28;20272;-80
2023/10/31 11:33:05;;;;;;;;;;;;;;;15.32;100.00;99538.28;5085166;28;19941;-79
2023/10/31 11:35:59;;;;;;;;;;;;;;;15.37;100.00;99538.03;5097595;28;19919;-79
2023/10/31 11:38:43;;;;;;;;;;;;;;;15.38;100.00;99551.69;5085218;28;20024;-80
2023/10/31 11:41:27;;;;;;;;;;;;;;;15.47;100.00;99551.56;5063346;28;19934;-80
2023/10/31 11:44:11;;;;;;;;;;;;;;;15.51;100.00;99541.28;5093706;28;20005;-79
2023/10/31 11:46:58;;;;;;;;;;;;;;;15.57;100.00;99537.13;5073820;28;19958;-80
2023/10/31 11:49:46;;;;;;;;;;;;;;;15.69;100.00;99536.31;5080106;28;19986;-80
2023/10/31 11:52:30;;;;;;;;;;;;;;;15.83;100.00;99533.13;5081126;28;19919;-79
2023/10/31 11:55:14;;;;;;;;;;;;;;;15.93;100.00;99532.63;5078409;28;19920;-79
2023/10/31 11:57:58;;;;;;;;;;;;;;;15.97;100.00;99529.97;5094458;28;20265;-79
2023/10/31 12:00:44;;;;;;;;;;;;;;;16.03;100.00;99532.16;5097165;28;20276;-79
2023/10/31 12:03:28;;;;;;;;;;;;;;;16.08;100.00;99531.09;5093864;28;19999;-79
2023/10/31 12:06:12;;;;;;;;;;;;;;;16.11;100.00;99530.38;5091593;28;19919;-79
2023/10/31 12:08:58;;;;;;;;;;;;;;;16.16;100.00;99534.91;5090216;28;19919;-79
2023/10/31 12:11:46;;;;;;;;;;;;;;;16.18;100.00;99538.97;5082739;28;19957;-79
2023/10/31 12:14:29;;;;;;;;;;;;;;;16.21;100.00;99541.06;5097906;28;19923;-79
2023/10/31 12:17:13;;;;;;;;;;;;;;;16.26;100.00;99529.63;5098172;28;19938;-79
2023/10/31 12:19:58;;;;;;;;;;;;;;;16.28;100.00;99530.06;5082219;28;19919;-79
2023/10/31 12:22:42;;;;;;;;;;;;;;;16.29;100.00;99531.69;5078018;28;19920;-79
2023/10/31 12:25:26;;;;;;;;;;;;;;;16.31;100.00;99531.34;5079019;28;19922;-79
2023/10/31 12:28:10;;;;;;;;;;;;;;;16.28;100.00;99526.47;5089939;28;19920;-79
2023/10/31 12:30:54;;;;;;;;;;;;;;;16.26;100.00;99538.00;5107012;28;20268;-79
2023/10/31 12:33:38;;;;;;;;;;;;;;;16.22;100.00;99534.31;5082002;28;20337;-79
2023/10/31 12:36:22;;;;;;;;;;;;;;;16.21;100.00;99535.47;5076911;28;19935;-79
2023/10/31 12:39:07;;;;;;;;;;;;;;;16.22;100.00;99527.91;5082019;28;19943;-79
2023/10/31 12:41:51;;;;;;;;;;;;;;;16.19;100.00;99537.00;5092059;28;19934;-79
2023/10/31 12:44:35;;;;;;;;;;;;;;;16.17;100.00;99539.34;5082317;28;19949;-80
2023/10/31 12:47:22;;;;;;;;;;;;;;;16.15;100.00;99536.88;5093208;28;19959;-79
2023/10/31 12:50:07;;;;;;;;;;;;;;;16.14;100.00;99540.88;5082417;28;20272;-80
2023/10/31 12:52:52;;;;;;;;;;;;;;;16.17;100.00;99544.94;5096685;28;19918;-79
2023/10/31 12:55:39;;;;;;;;;;;;;;;16.17;100.00;99542.16;5080711;28;19920;-79
2023/10/31 12:58:23;;;;;;;;;;;;;;;16.21;100.00;99535.47;5096923;28;19919;-79
2023/10/31 13:01:11;;;;;;;;;;;;;;;16.25;100.00;99536.41;5082218;28;19919;-79
2023/10/31 13:03:55;;;;;;;;;;;;;;;16.30;100.00;99533.34;5082099;28;20260;-80
2023/10/31 13:06:39;;;;;;;;;;;;;;;16.34;100.00;99533.44;5096854;28;20347;-80
2023/10/31 13:09:27;;;;;;;;;;;;;;;16.37;100.00;99537.53;5078916;28;19920;-79
2023/10/31 13:12:11;;;;;;;;;;;;;;;16.39;100.00;99538.78;5074128;28;19920;-79
2023/10/31 13:14:56;;;;;;;;;;;;;;;16.42;100.00;99523.25;5099885;28;19919;-80
2023/10/31 13:17:41;;;;;;;;;;;;;;;16.44;100.00;99520.91;5080070;28;20284;-80
2023/10/31 13:20:25;;;;;;;;;;;;;;;16.44;100.00;99520.91;5075301;28;19961;-80
2023/10/31 13:23:09;;;;;;;;;;;;;;;16.41;100.00;99527.22;5084319;28;19927;-80
2023/10/31 13:25:53;;;;;;;;;;;;;;;16.36;100.00;99519.09;5094910;28;19919;-79
2023/10/31 13:28:38;;;;;;;;;;;;;;;16.32;100.00;99510.56;5080339;28;19962;-80
2023/10/31 13:31:22;;;;;;;;;;;;;;;16.28;100.00;99510.47;5114405;28;19919;-80
2023/10/31 13:34:06;;;;;;;;;;;;;;;16.24;100.00;99531.97;5095762;28;19980;-80
2023/10/31 13:36:51;;;;;;;;;;;;;;;16.19;100.00;99518.22;5099882;28;19939;-80
2023/10/31 13:39:35;;;;;;;;;;;;;;;16.15;100.00;99520.09;5071047;28;19944;-79
2023/10/31 13:42:19;;;;;;;;;;;;;;;16.07;100.00;99524.69;5081011;28;20630;-79
2023/10/31 13:45:03;;;;;;;;;;;;;;;16.07;100.00;99518.25;5080409;28;19961;-80
2023/10/31 13:47:50;;;;;;;;;;;;;;;16.06;100.00;99519.41;5105996;27;23192;-80
2023/10/31 13:50:34;;;;;;;;;;;;;;;16.00;100.00;99518.03;5089697;28;19965;-79
2023/10/31 13:53:18;;;;;;;;;;;;;;;16.01;100.00;99516.88;5079453;28;19918;-80
2023/10/31 13:56:02;;;;;;;;;;;;;;;15.98;100.00;99514.78;5095169;28;19918;-80
2023/10/31 13:58:46;;;;;;;;;;;;;;;15.96;100.00;99508.72;5095075;28;20434;-80
2023/10/31 14:01:30;;;;;;;;;;;;;;;15.94;100.00;99514.69;5099624;28;19923;-80
2023/10/31 14:04:14;;;;;;;;;;;;;;;15.93;100.00;99513.03;5067485;28;19926;-80
2023/10/31 14:06:58;;;;;;;;;;;;;;;15.91;100.00;99515.41;5084671;28;20367;-79
2023/10/31 14:09:42;;;;;;;;;;;;;;;15.91;100.00;99525.75;5084931;28;19919;-80
2023/10/31 14:12:28;;;;;;;;;;;;;;;15.88;100.00;99512.47;5084903;28;19957;-80